Time;durP1;ratioP1;P1;durP2;ratioP2;P2;SDS_P1;SDS_P2;PMS_P1;PMS_P2;Temp;Humidity;BMP_temperature;BMP_pressure;BME280_temperature;BME280_humidity;BME280_pressure;Samples;Min_cycle;Max_cycle;Signal;HPM_P1;HPM_P2
2022/05/08 00:02:20;;;;;;;18.37;16.37;;;17.20;84.70;;;;;;5072614;28;21013;-70
2022/05/08 00:04:50;;;;;;;18.37;16.50;;;17.20;84.90;;;;;;5073205;28;20518;-70
2022/05/08 00:07:18;;;;;;;17.07;15.47;;;17.20;85.10;;;;;;5073148;28;20445;-71
2022/05/08 00:09:45;;;;;;;19.33;16.10;;;17.10;85.60;;;;;;5073301;28;20480;-70
2022/05/08 00:12:12;;;;;;;17.63;15.83;;;17.20;86.40;;;;;;5073127;28;20465;-71
2022/05/08 00:14:39;;;;;;;17.73;15.93;;;17.20;87.00;;;;;;5073073;28;20449;-71
2022/05/08 00:17:07;;;;;;;18.03;16.40;;;17.20;87.50;;;;;;5073047;28;20506;-71
2022/05/08 00:19:34;;;;;;;18.37;16.43;;;17.20;87.40;;;;;;5072797;28;20452;-71
2022/05/08 00:22:00;;;;;;;17.77;16.07;;;17.20;87.30;;;;;;5072850;28;20472;-71
2022/05/08 00:24:29;;;;;;;18.80;17.10;;;17.30;87.40;;;;;;5074249;28;20452;-70
2022/05/08 00:26:55;;;;;;;19.00;17.10;;;17.20;87.30;;;;;;5077100;28;20448;-70
2022/05/08 00:29:22;;;;;;;18.10;16.27;;;17.30;87.50;;;;;;5076982;28;20448;-71
2022/05/08 00:31:49;;;;;;;18.47;16.67;;;17.20;87.50;;;;;;5076525;28;20825;-70
2022/05/08 00:34:16;;;;;;;19.40;17.57;;;17.20;87.50;;;;;;5076508;28;20474;-71
2022/05/08 00:36:43;;;;;;;18.60;16.90;;;17.20;87.60;;;;;;5076720;28;20462;-71
2022/05/08 00:39:09;;;;;;;18.93;17.00;;;17.20;87.60;;;;;;5076534;28;20445;-71
2022/05/08 00:41:38;;;;;;;18.47;16.70;;;17.20;87.90;;;;;;5076619;28;20464;-71
2022/05/08 00:44:05;;;;;;;20.80;18.77;;;17.20;87.90;;;;;;5076406;28;20461;-71
2022/05/08 00:46:31;;;;;;;19.20;17.30;;;17.20;88.00;;;;;;5076287;28;20448;-71
2022/05/08 00:48:58;;;;;;;18.07;16.40;;;17.20;88.30;;;;;;5076626;28;20448;-70
2022/05/08 00:51:28;;;;;;;18.20;16.40;;;17.20;88.30;;;;;;5079043;28;20495;-70
2022/05/08 00:53:58;;;;;;;19.70;17.80;;;17.20;88.50;;;;;;5096623;28;20486;-70
2022/05/08 00:56:25;;;;;;;21.77;19.57;;;17.20;88.80;;;;;;5096626;28;20451;-71
2022/05/08 00:58:54;;;;;;;22.00;19.73;;;17.10;89.20;;;;;;5096379;28;20796;-71
2022/05/08 01:01:21;;;;;;;23.10;20.90;;;17.20;89.90;;;;;;5094938;28;20468;-71
2022/05/08 01:03:48;;;;;;;20.63;18.60;;;17.20;90.10;;;;;;5096463;28;20440;-71
2022/05/08 01:06:16;;;;;;;22.80;20.70;;;17.20;90.30;;;;;;5096085;28;20831;-71
2022/05/08 01:08:45;;;;;;;24.23;21.77;;;17.20;90.50;;;;;;5096332;28;20854;-71
2022/05/08 01:11:13;;;;;;;19.93;17.90;;;17.20;90.70;;;;;;5096212;28;20480;-70
2022/05/08 01:13:41;;;;;;;24.03;21.63;;;17.20;90.80;;;;;;5096390;28;20440;-71
2022/05/08 01:16:09;;;;;;;21.20;18.70;;;17.20;90.70;;;;;;5096306;28;20459;-71
2022/05/08 01:18:37;;;;;;;18.77;16.57;;;17.20;91.00;;;;;;5095952;28;20962;-71
2022/05/08 01:21:05;;;;;;;17.13;15.53;;;17.20;91.10;;;;;;5096155;28;20464;-70
2022/05/08 01:23:33;;;;;;;14.57;13.37;;;17.20;90.80;;;;;;5096079;28;20505;-71
2022/05/08 01:26:00;;;;;;;16.60;14.10;;;17.30;90.70;;;;;;5096093;28;20459;-71
2022/05/08 01:28:29;;;;;;;13.40;12.00;;;17.30;90.60;;;;;;5096008;28;20474;-70
2022/05/08 01:30:57;;;;;;;11.57;10.37;;;17.20;90.10;;;;;;5095890;28;20529;-69
2022/05/08 01:33:24;;;;;;;10.63;8.87;;;17.20;89.40;;;;;;5095980;28;20466;-69
2022/05/08 01:35:52;;;;;;;11.57;8.90;;;17.20;88.20;;;;;;5095194;28;20459;-69
2022/05/08 01:38:21;;;;;;;9.07;8.27;;;17.20;87.80;;;;;;5095795;28;20448;-70
2022/05/08 01:40:50;;;;;;;9.03;7.90;;;17.20;87.30;;;;;;5095985;28;20448;-70
2022/05/08 01:43:17;;;;;;;10.57;7.50;;;17.20;87.10;;;;;;5095933;28;20451;-70
2022/05/08 01:45:44;;;;;;;9.13;6.80;;;17.20;86.60;;;;;;5095804;28;20428;-70
2022/05/08 01:48:22;;;;;;;10.97;8.00;;;17.20;86.20;;;;;;5095661;28;20432;-69
2022/05/08 01:50:50;;;;;;;9.50;7.90;;;17.20;86.30;;;;;;5095762;28;20483;-69
2022/05/08 01:53:18;;;;;;;7.70;6.90;;;17.20;86.10;;;;;;5095754;28;20482;-69
2022/05/08 01:55:45;;;;;;;9.53;8.53;;;17.20;86.10;;;;;;5095654;28;20477;-70
2022/05/08 01:58:13;;;;;;;12.17;9.80;;;17.20;86.80;;;;;;5095546;28;20446;-70
2022/05/08 02:00:40;;;;;;;11.17;10.03;;;17.20;87.20;;;;;;5095406;28;20493;-70
2022/05/08 02:03:07;;;;;;;12.13;10.63;;;17.20;87.60;;;;;;5095839;28;20450;-69
2022/05/08 02:05:35;;;;;;;10.90;9.47;;;17.20;87.80;;;;;;5095524;28;20490;-70
2022/05/08 02:08:03;;;;;;;12.23;8.73;;;17.20;87.50;;;;;;5095483;28;20855;-70
2022/05/08 02:10:30;;;;;;;8.33;7.40;;;17.20;87.30;;;;;;5094993;28;20483;-70
2022/05/08 02:12:56;;;;;;;7.53;6.83;;;17.20;86.50;;;;;;5095105;28;20471;-70
2022/05/08 02:15:29;;;;;;;6.83;5.90;;;17.20;85.30;;;;;;5095145;28;20444;-70
2022/05/08 02:17:57;;;;;;;6.00;5.47;;;17.10;84.40;;;;;;5095124;28;20450;-70
2022/05/08 02:20:23;;;;;;;7.93;5.60;;;17.10;84.20;;;;;;5094640;28;20927;-70
2022/05/08 02:22:51;;;;;;;7.07;5.50;;;17.00;83.70;;;;;;5094907;28;20474;-70
2022/05/08 02:25:18;;;;;;;5.10;4.43;;;17.00;83.30;;;;;;5094543;28;20853;-71
2022/05/08 02:27:49;;;;;;;7.80;5.07;;;17.00;82.70;;;;;;5094920;28;20455;-71
2022/05/08 02:30:16;;;;;;;7.53;4.73;;;17.00;82.30;;;;;;5094871;28;20439;-71
2022/05/08 02:32:44;;;;;;;5.10;4.60;;;16.90;81.60;;;;;;5095263;28;20472;-70
2022/05/08 02:35:11;;;;;;;5.77;4.60;;;16.90;81.40;;;;;;5094794;28;20455;-71
2022/05/08 02:37:39;;;;;;;6.83;5.37;;;16.90;81.20;;;;;;5095034;28;20443;-71
2022/05/08 02:40:08;;;;;;;7.37;5.37;;;16.90;80.90;;;;;;5094718;28;20475;-70
2022/05/08 02:42:35;;;;;;;8.23;4.03;;;16.90;81.00;;;;;;5094876;28;20500;-70
2022/05/08 02:45:02;;;;;;;6.37;4.00;;;16.90;80.90;;;;;;5094152;28;20463;-71
2022/05/08 02:47:29;;;;;;;10.30;5.13;;;16.90;80.50;;;;;;5093427;28;20978;-71
2022/05/08 02:49:57;;;;;;;7.73;5.57;;;16.90;80.30;;;;;;5094445;28;20451;-71
2022/05/08 02:52:24;;;;;;;6.07;5.17;;;16.90;80.40;;;;;;5094345;28;20491;-70
2022/05/08 02:54:51;;;;;;;7.10;5.43;;;16.90;80.50;;;;;;5094422;28;20459;-70
2022/05/08 03:00:05;;;;;;;5.60;4.90;;;16.80;80.40;;;;;;5094498;28;20427;-70
2022/05/08 03:02:32;;;;;;;8.87;5.93;;;16.80;80.00;;;;;;5093939;28;21085;-71
2022/05/08 03:05:00;;;;;;;5.13;4.27;;;16.80;80.00;;;;;;5094243;28;20454;-71
2022/05/08 03:07:27;;;;;;;12.90;6.50;;;16.70;79.80;;;;;;5094300;28;20779;-71
2022/05/08 03:09:53;;;;;;;8.40;6.00;;;16.70;80.00;;;;;;5093986;28;20455;-70
2022/05/08 03:12:20;;;;;;;7.33;5.67;;;16.70;80.00;;;;;;5093939;28;20484;-70
2022/05/08 03:14:47;;;;;;;10.07;6.93;;;16.70;79.90;;;;;;5093936;28;20455;-70
2022/05/08 03:17:13;;;;;;;9.37;6.00;;;16.60;79.90;;;;;;5094208;28;20431;-70
2022/05/08 03:19:40;;;;;;;8.10;5.60;;;16.60;80.00;;;;;;5094071;28;20455;-70
2022/05/08 03:22:08;;;;;;;10.50;5.60;;;16.60;79.90;;;;;;5093952;28;20460;-71
2022/05/08 03:24:35;;;;;;;7.23;6.60;;;16.60;80.00;;;;;;5093967;28;20444;-71
2022/05/08 03:27:02;;;;;;;7.20;6.00;;;16.60;80.20;;;;;;5093784;28;20455;-71
2022/05/08 03:29:28;;;;;;;8.83;6.50;;;16.50;80.20;;;;;;5093896;28;20447;-71
2022/05/08 03:31:55;;;;;;;8.40;6.40;;;16.50;80.40;;;;;;5093863;28;20495;-71
2022/05/08 03:34:22;;;;;;;8.10;5.90;;;16.50;80.30;;;;;;5093563;28;20982;-70
2022/05/08 03:36:49;;;;;;;10.90;6.90;;;16.40;80.20;;;;;;5093357;28;20483;-70
2022/05/08 03:39:17;;;;;;;7.30;5.43;;;16.40;80.40;;;;;;5093637;28;20452;-70
2022/05/08 03:41:43;;;;;;;7.57;6.80;;;16.40;80.20;;;;;;5093622;28;20823;-71
2022/05/08 03:44:10;;;;;;;6.87;6.20;;;16.30;80.40;;;;;;5093524;28;20459;-71
2022/05/08 03:46:37;;;;;;;12.50;7.07;;;16.40;80.50;;;;;;5093700;28;20479;-71
2022/05/08 03:49:04;;;;;;;7.17;6.40;;;16.30;80.40;;;;;;5093559;28;20822;-70
2022/05/08 03:51:31;;;;;;;7.67;5.90;;;16.30;80.60;;;;;;5089014;28;20492;-70
2022/05/08 03:53:57;;;;;;;11.20;7.40;;;16.30;80.30;;;;;;5073403;28;20445;-69
2022/05/08 03:56:27;;;;;;;10.03;6.73;;;16.20;80.20;;;;;;5073025;28;20936;-71
2022/05/08 03:58:54;;;;;;;8.27;6.97;;;16.30;80.50;;;;;;5074489;28;20521;-71
2022/05/08 04:01:21;;;;;;;8.63;7.73;;;16.30;80.40;;;;;;5080052;28;20476;-70
2022/05/08 04:03:48;;;;;;;9.67;7.27;;;16.20;80.50;;;;;;5080052;28;20464;-69
2022/05/08 04:06:14;;;;;;;9.03;6.83;;;16.20;80.60;;;;;;5080034;28;20455;-71
2022/05/08 04:08:41;;;;;;;9.17;8.27;;;16.20;80.50;;;;;;5080127;28;20506;-71
2022/05/08 04:11:08;;;;;;;9.27;8.10;;;16.20;80.60;;;;;;5080059;28;20863;-71
2022/05/08 04:13:36;;;;;;;10.13;8.40;;;16.20;80.70;;;;;;5080008;28;20455;-71
2022/05/08 04:16:19;;;;;;;10.73;8.63;;;16.20;80.90;;;;;;5080121;28;20443;-71
2022/05/08 04:18:46;;;;;;;8.60;7.80;;;16.20;81.00;;;;;;5080087;28;20429;-71
2022/05/08 04:21:13;;;;;;;9.30;8.40;;;16.20;80.80;;;;;;5080059;28;20468;-71
2022/05/08 04:26:24;;;;;;;11.17;9.97;;;16.20;80.80;;;;;;5080003;28;20396;-70
2022/05/08 04:28:52;;;;;;;10.73;8.83;;;16.20;80.90;;;;;;5080300;28;20451;-70
2022/05/08 04:31:19;;;;;;;10.13;9.10;;;16.20;81.00;;;;;;5079810;28;20491;-70
2022/05/08 04:33:45;;;;;;;11.57;8.90;;;16.20;81.30;;;;;;5080299;28;20459;-71
2022/05/08 04:36:13;;;;;;;10.43;9.43;;;16.20;81.30;;;;;;5079540;28;20950;-71
2022/05/08 04:38:39;;;;;;;10.63;9.60;;;16.20;81.30;;;;;;5080338;28;20476;-71
2022/05/08 04:41:06;;;;;;;9.63;8.53;;;16.20;81.30;;;;;;5079965;28;20471;-70
2022/05/08 04:43:33;;;;;;;11.00;8.20;;;16.20;81.50;;;;;;5079967;28;20464;-70
2022/05/08 04:46:01;;;;;;;11.50;9.60;;;16.20;82.00;;;;;;5080355;28;20436;-70
2022/05/08 04:48:28;;;;;;;12.00;10.80;;;16.20;82.10;;;;;;5080348;28;20452;-71
2022/05/08 04:50:55;;;;;;;12.93;10.77;;;16.20;81.90;;;;;;5080407;28;20475;-70
2022/05/08 04:53:22;;;;;;;16.90;10.30;;;16.20;81.60;;;;;;5081175;28;20440;-70
2022/05/08 04:55:49;;;;;;;17.70;11.90;;;16.20;81.20;;;;;;5082195;28;20441;-70
2022/05/08 04:58:16;;;;;;;12.80;11.00;;;16.20;81.10;;;;;;5082741;28;20444;-71
2022/05/08 05:00:42;;;;;;;13.90;12.30;;;16.20;81.00;;;;;;5082173;28;20444;-71
2022/05/08 05:03:11;;;;;;;13.47;12.07;;;16.20;81.20;;;;;;5081971;28;20966;-71
2022/05/08 05:05:37;;;;;;;12.47;10.57;;;16.20;81.10;;;;;;5082235;28;20443;-71
2022/05/08 05:08:06;;;;;;;14.07;12.77;;;16.20;80.80;;;;;;5082019;28;20974;-71
2022/05/08 05:10:33;;;;;;;14.30;12.80;;;16.20;80.50;;;;;;5080632;28;20445;-71
2022/05/08 05:12:59;;;;;;;16.23;13.87;;;16.20;80.00;;;;;;5077344;28;20488;-71
2022/05/08 05:15:27;;;;;;;17.40;13.97;;;16.20;79.60;;;;;;5076587;28;20452;-71
2022/05/08 05:17:54;;;;;;;15.03;12.87;;;16.30;79.30;;;;;;5076201;28;20491;-71
2022/05/08 05:20:22;;;;;;;15.70;13.77;;;16.30;78.90;;;;;;5075733;28;20940;-71
2022/05/08 05:22:49;;;;;;;15.27;13.63;;;16.30;78.40;;;;;;5092162;28;20471;-69
2022/05/08 05:25:16;;;;;;;14.50;13.00;;;16.20;77.70;;;;;;5095605;28;20479;-70
2022/05/08 05:27:42;;;;;;;17.67;14.83;;;16.30;77.60;;;;;;5094991;28;20508;-70
2022/05/08 05:30:10;;;;;;;14.23;12.73;;;16.30;77.20;;;;;;5094985;28;20445;-70
2022/05/08 05:32:38;;;;;;;16.83;15.00;;;16.20;76.90;;;;;;5094655;28;20490;-70
2022/05/08 05:35:05;;;;;;;15.23;13.77;;;16.20;76.70;;;;;;5094572;28;20936;-70
2022/05/08 05:37:34;;;;;;;14.90;12.70;;;16.30;76.70;;;;;;5094608;28;20449;-71
2022/05/08 05:40:01;;;;;;;13.23;11.93;;;16.30;76.20;;;;;;5094701;28;20471;-70
2022/05/08 05:42:27;;;;;;;13.73;11.70;;;16.30;75.90;;;;;;5094927;28;20461;-70
2022/05/08 05:44:55;;;;;;;13.70;11.73;;;16.30;76.00;;;;;;5094669;28;20843;-70
2022/05/08 05:50:08;;;;;;;10.80;9.40;;;16.40;75.40;;;;;;5094647;28;20416;-70
2022/05/08 05:52:36;;;;;;;12.40;9.50;;;16.50;74.50;;;;;;5093694;28;20503;-70
2022/05/08 05:55:06;;;;;;;10.63;9.53;;;16.50;73.50;;;;;;5094273;28;20449;-71
2022/05/08 05:57:33;;;;;;;10.43;9.33;;;16.60;72.70;;;;;;5094223;28;20453;-70
2022/05/08 06:00:00;;;;;;;12.03;9.90;;;16.60;72.20;;;;;;5093807;28;20449;-70
2022/05/08 06:02:26;;;;;;;12.30;9.17;;;16.70;72.10;;;;;;5093853;28;20468;-70
2022/05/08 06:04:53;;;;;;;11.60;10.03;;;16.80;72.10;;;;;;5094612;28;20452;-70
2022/05/08 06:07:20;;;;;;;12.70;10.13;;;16.70;71.10;;;;;;5094552;28;20449;-70
2022/05/08 06:09:48;;;;;;;13.63;9.33;;;16.80;70.00;;;;;;5094798;28;20452;-70
2022/05/08 06:12:16;;;;;;;10.60;9.47;;;16.70;69.70;;;;;;5094353;28;20477;-70
2022/05/08 06:14:43;;;;;;;10.53;9.43;;;16.80;69.80;;;;;;5094844;28;20464;-70
2022/05/08 06:17:10;;;;;;;12.03;10.47;;;16.70;69.20;;;;;;5093890;28;20817;-70
2022/05/08 06:19:37;;;;;;;14.37;9.67;;;16.80;69.40;;;;;;5094379;28;20451;-70
2022/05/08 06:22:04;;;;;;;15.30;9.80;;;16.70;69.70;;;;;;5093731;28;20469;-70
2022/05/08 06:24:31;;;;;;;14.43;9.20;;;16.70;69.60;;;;;;5094106;28;20447;-70
2022/05/08 06:26:59;;;;;;;16.70;10.23;;;16.70;69.10;;;;;;5093701;28;20547;-70
2022/05/08 06:29:26;;;;;;;11.43;8.30;;;16.80;69.40;;;;;;5092177;28;20448;-71
2022/05/08 06:31:53;;;;;;;12.17;8.23;;;16.90;70.20;;;;;;5090221;28;20485;-71
2022/05/08 06:34:20;;;;;;;11.93;9.60;;;16.80;68.30;;;;;;5088672;28;20464;-72
2022/05/08 06:36:47;;;;;;;13.10;9.70;;;16.90;67.70;;;;;;5079573;28;20452;-68
2022/05/08 06:39:15;;;;;;;12.23;8.67;;;16.90;67.00;;;;;;5086499;28;20448;-71
2022/05/08 06:41:42;;;;;;;9.43;7.90;;;16.90;67.00;;;;;;5093147;28;20444;-70
2022/05/08 06:44:10;;;;;;;11.67;8.00;;;17.10;67.50;;;;;;5091957;28;20465;-71
2022/05/08 06:46:37;;;;;;;9.57;8.40;;;17.20;67.10;;;;;;5091061;28;20456;-71
2022/05/08 06:49:05;;;;;;;16.03;8.90;;;17.30;66.80;;;;;;5091256;28;20429;-71
2022/05/08 06:51:32;;;;;;;10.77;7.67;;;17.30;66.30;;;;;;5090464;28;20484;-70
2022/05/08 06:53:58;;;;;;;11.30;7.53;;;17.50;66.50;;;;;;5090956;28;20444;-71
2022/05/08 06:56:26;;;;;;;12.00;7.30;;;17.60;66.10;;;;;;5092819;28;20452;-71
2022/05/08 07:01:40;;;;;;;11.50;7.63;;;17.90;63.60;;;;;;5094217;28;20443;-72
2022/05/08 07:04:08;;;;;;;12.47;7.00;;;18.10;62.20;;;;;;5092909;28;20452;-72
2022/05/08 07:06:36;;;;;;;11.17;6.17;;;18.20;62.00;;;;;;5093077;28;20417;-72
2022/05/08 07:09:03;;;;;;;14.83;6.43;;;18.40;60.90;;;;;;5092532;28;20465;-72
2022/05/08 07:11:31;;;;;;;13.80;5.80;;;18.60;60.60;;;;;;5092723;28;20468;-71
2022/05/08 07:13:58;;;;;;;13.37;6.23;;;18.80;60.40;;;;;;5093255;28;20428;-71
2022/05/08 07:16:25;;;;;;;11.60;6.77;;;18.80;59.40;;;;;;5092516;28;20441;-71
2022/05/08 07:18:53;;;;;;;14.33;5.63;;;19.00;59.00;;;;;;5092894;28;20437;-70
2022/05/08 07:21:20;;;;;;;25.00;7.50;;;19.00;58.60;;;;;;5084714;28;20855;-71
2022/05/08 07:23:47;;;;;;;9.30;5.13;;;19.10;58.10;;;;;;5073390;28;20904;-71
2022/05/08 07:26:14;;;;;;;10.83;5.50;;;19.20;58.00;;;;;;5073387;28;20447;-71
2022/05/08 07:28:41;;;;;;;10.30;5.60;;;19.30;58.30;;;;;;5073790;28;20617;-71
2022/05/08 07:31:08;;;;;;;10.13;5.60;;;19.50;57.90;;;;;;5073176;28;20841;-71
2022/05/08 07:33:37;;;;;;;13.63;5.30;;;19.70;57.50;;;;;;5072597;28;20551;-70
2022/05/08 07:36:15;;;;;;;10.27;4.53;;;19.80;56.90;;;;;;5073188;28;20931;-70
2022/05/08 07:38:43;;;;;;;9.43;4.60;;;20.00;56.30;;;;;;5073524;28;20425;-70
2022/05/08 07:41:11;;;;;;;9.60;4.53;;;20.00;55.80;;;;;;5073379;28;20496;-69
2022/05/08 07:43:39;;;;;;;20.67;5.70;;;20.10;55.80;;;;;;5073156;28;20488;-69
2022/05/08 07:46:06;;;;;;;22.27;5.70;;;20.30;54.80;;;;;;5073500;28;20451;-70
2022/05/08 07:48:33;;;;;;;12.20;5.00;;;20.40;54.50;;;;;;5073392;28;20455;-69
2022/05/08 07:51:01;;;;;;;10.63;4.20;;;20.50;53.70;;;;;;5073080;28;21054;-70
2022/05/08 07:53:30;;;;;;;9.10;4.33;;;20.60;53.10;;;;;;5073310;28;20477;-70
2022/05/08 07:55:58;;;;;;;13.00;5.07;;;20.70;52.80;;;;;;5073430;28;20432;-70
2022/05/08 07:58:27;;;;;;;9.33;4.33;;;20.80;52.40;;;;;;5073481;28;20803;-70
2022/05/08 08:00:57;;;;;;;12.10;5.13;;;20.90;52.10;;;;;;5072995;28;20861;-70
2022/05/08 08:03:24;;;;;;;8.87;4.93;;;20.90;51.50;;;;;;5073281;28;20799;-70
2022/05/08 08:05:51;;;;;;;9.30;4.07;;;21.00;51.10;;;;;;5073295;28;20451;-70
2022/05/08 08:08:21;;;;;;;10.33;4.77;;;21.10;50.70;;;;;;5073175;28;20476;-71
2022/05/08 08:10:52;;;;;;;18.03;5.50;;;21.20;50.40;;;;;;5073647;28;20456;-70
2022/05/08 08:13:19;;;;;;;15.30;5.80;;;21.20;50.10;;;;;;5074037;28;20870;-71
2022/05/08 08:15:45;;;;;;;9.13;5.30;;;21.20;50.40;;;;;;5074343;28;20444;-71
2022/05/08 08:18:12;;;;;;;14.90;6.13;;;21.20;50.30;;;;;;5073658;28;20429;-71
2022/05/08 08:20:39;;;;;;;9.33;5.00;;;21.30;50.40;;;;;;5074056;28;20445;-72
2022/05/08 08:23:06;;;;;;;13.93;5.37;;;21.30;50.30;;;;;;5074780;28;20467;-71
2022/05/08 08:25:33;;;;;;;11.80;4.87;;;21.40;50.20;;;;;;5073830;28;20433;-72
2022/05/08 08:28:02;;;;;;;12.93;5.10;;;21.50;49.60;;;;;;5073918;28;20429;-72
2022/05/08 08:30:29;;;;;;;14.77;5.73;;;21.60;49.00;;;;;;5074428;28;20801;-71
2022/05/08 08:32:56;;;;;;;9.60;4.50;;;21.60;47.40;;;;;;5073783;28;20488;-71
2022/05/08 08:35:23;;;;;;;13.00;5.63;;;21.60;47.90;;;;;;5074189;28;20437;-71
2022/05/08 08:37:50;;;;;;;14.20;4.50;;;21.70;48.10;;;;;;5073795;28;20480;-71
2022/05/08 08:40:17;;;;;;;11.83;4.53;;;21.70;48.00;;;;;;5074086;28;20429;-73
2022/05/08 08:42:45;;;;;;;13.00;4.73;;;21.70;48.40;;;;;;5073949;28;20460;-73
2022/05/08 08:48:05;;;;;;;11.27;4.07;;;21.80;48.00;;;;;;5076663;28;20408;-72
2022/05/08 08:50:32;;;;;;;18.70;5.70;;;22.00;47.70;;;;;;5076847;28;20802;-72
2022/05/08 08:53:00;;;;;;;14.37;4.23;;;22.10;47.50;;;;;;5076387;28;20480;-71
2022/05/08 08:55:28;;;;;;;7.67;4.13;;;22.20;47.30;;;;;;5076570;28;20436;-71
2022/05/08 08:57:55;;;;;;;10.70;4.67;;;22.30;47.10;;;;;;5076514;28;20433;-71
2022/05/08 09:00:23;;;;;;;14.20;5.57;;;22.40;46.00;;;;;;5076350;28;20502;-72
2022/05/08 09:02:52;;;;;;;11.97;5.17;;;22.50;46.00;;;;;;5076226;28;20560;-71
2022/05/08 09:05:19;;;;;;;11.30;4.07;;;22.60;45.90;;;;;;5076019;28;20965;-71
2022/05/08 09:07:47;;;;;;;8.10;4.03;;;22.70;45.80;;;;;;5076249;28;20459;-71
2022/05/08 09:10:16;;;;;;;9.07;3.87;;;22.90;45.20;;;;;;5075891;28;20858;-71
2022/05/08 09:12:45;;;;;;;10.67;4.57;;;23.10;44.20;;;;;;5076067;28;20489;-71
2022/05/08 09:15:24;;;;;;;10.90;4.53;;;23.30;43.90;;;;;;5075940;28;20482;-71
2022/05/08 09:17:53;;;;;;;8.30;3.73;;;23.50;43.20;;;;;;5076232;28;20432;-71
2022/05/08 09:20:32;;;;;;;11.00;4.73;;;23.70;42.80;;;;;;5076136;28;20560;-71
2022/05/08 09:23:04;;;;;;;7.27;3.50;;;23.90;42.10;;;;;;5075895;28;20475;-71
2022/05/08 09:25:52;;;;;;;7.87;3.40;;;24.20;41.70;;;;;;5076094;28;20472;-71
2022/05/08 09:28:20;;;;;;;11.67;3.63;;;24.50;41.00;;;;;;5075905;28;20429;-70
2022/05/08 09:31:03;;;;;;;10.57;4.50;;;24.70;40.50;;;;;;5075919;28;20449;-70
2022/05/08 09:33:32;;;;;;;9.63;4.10;;;24.70;40.20;;;;;;5075892;28;20469;-71
2022/05/08 09:36:01;;;;;;;11.70;4.33;;;24.60;39.10;;;;;;5075884;28;20433;-70
2022/05/08 09:38:46;;;;;;;10.13;4.47;;;24.50;40.20;;;;;;5075910;28;20475;-70
2022/05/08 09:41:14;;;;;;;7.93;3.43;;;24.30;38.70;;;;;;5075649;28;20468;-70
2022/05/08 09:43:41;;;;;;;7.97;3.23;;;24.40;39.50;;;;;;5075568;28;20461;-71
2022/05/08 09:46:11;;;;;;;7.90;4.10;;;24.60;39.10;;;;;;5075623;28;20525;-70
2022/05/08 09:48:38;;;;;;;7.63;3.80;;;24.90;38.00;;;;;;5075457;28;20825;-70
2022/05/08 09:51:06;;;;;;;5.50;3.03;;;25.10;37.70;;;;;;5075279;28;20468;-70
2022/05/08 09:53:34;;;;;;;6.47;2.90;;;25.20;37.70;;;;;;5075528;28;20488;-71
2022/05/08 09:56:03;;;;;;;6.10;2.90;;;25.40;37.90;;;;;;5075105;28;20495;-71
2022/05/08 09:58:31;;;;;;;7.93;3.30;;;25.60;37.90;;;;;;5074809;28;20453;-71
2022/05/08 10:00:58;;;;;;;11.20;3.73;;;25.90;37.30;;;;;;5074961;28;20555;-71
2022/05/08 10:03:27;;;;;;;9.20;3.30;;;26.00;36.30;;;;;;5075507;28;20456;-72
2022/05/08 10:05:55;;;;;;;10.00;3.40;;;26.40;37.10;;;;;;5075616;28;20450;-72
2022/05/08 10:08:24;;;;;;;6.50;3.23;;;26.80;35.80;;;;;;5075387;28;20488;-72
2022/05/08 10:13:56;;;;;;;7.53;3.00;;;27.80;35.80;;;;;;5075532;28;20456;-71
2022/05/08 10:17:00;;;;;;;8.57;2.80;;;28.10;33.40;;;;;;5076021;28;20480;-70
2022/05/08 10:19:47;;;;;;;6.40;3.00;;;28.60;31.90;;;;;;5074777;28;20478;-70
2022/05/08 10:22:14;;;;;;;7.27;2.97;;;29.10;31.20;;;;;;5074487;28;20898;-71
2022/05/08 10:24:47;;;;;;;6.77;3.20;;;29.70;30.80;;;;;;5074712;28;20448;-71
2022/05/08 10:27:16;;;;;;;9.03;2.40;;;30.10;29.10;;;;;;5074771;28;20441;-71
2022/05/08 10:29:43;;;;;;;5.67;2.90;;;30.50;28.30;;;;;;5074369;28;20425;-71
2022/05/08 10:32:13;;;;;;;7.40;2.83;;;30.90;27.60;;;;;;5074615;28;20471;-72
2022/05/08 10:34:40;;;;;;;5.93;2.67;;;31.20;27.40;;;;;;5074564;28;20488;-72
2022/05/08 10:37:29;;;;;;;6.93;3.10;;;31.60;26.80;;;;;;5074364;28;20526;-71
2022/05/08 10:39:56;;;;;;;4.67;2.57;;;32.00;26.10;;;;;;5074359;28;20490;-71
2022/05/08 10:42:55;;;;;;;7.00;3.30;;;32.40;25.50;;;;;;5074274;28;20468;-71
2022/05/08 10:45:40;;;;;;;6.60;2.60;;;32.90;25.30;;;;;;5074364;28;20546;-71
2022/05/08 10:48:12;;;;;;;7.23;2.70;;;33.40;24.70;;;;;;5074397;28;20786;-72
2022/05/08 10:50:42;;;;;;;6.60;2.83;;;33.90;24.40;;;;;;5074736;28;20863;-73
2022/05/08 10:53:21;;;;;;;4.60;2.10;;;34.40;23.10;;;;;;5074811;28;20529;-72
2022/05/08 10:55:48;;;;;;;10.87;4.07;;;34.80;22.30;;;;;;5074313;28;20482;-72
2022/05/08 10:58:15;;;;;;;6.13;2.60;;;35.10;21.90;;;;;;5074166;28;20448;-72
2022/05/08 11:00:41;;;;;;;4.63;2.30;;;35.50;21.70;;;;;;5074104;28;20444;-72
2022/05/08 11:03:08;;;;;;;7.00;2.77;;;35.90;21.00;;;;;;5073955;28;20835;-72
2022/05/08 11:05:36;;;;;;;3.77;1.90;;;36.10;20.70;;;;;;5073820;28;20482;-72
2022/05/08 11:08:06;;;;;;;3.37;2.33;;;36.40;20.20;;;;;;5073846;28;20228;-72
2022/05/08 11:10:36;;;;;;;6.13;2.20;;;36.70;19.50;;;;;;5073211;28;20212;-72
2022/05/08 11:13:05;;;;;;;7.03;2.17;;;37.00;19.40;;;;;;5073836;28;20186;-72
2022/05/08 11:15:33;;;;;;;5.67;2.47;;;37.30;19.10;;;;;;5073868;28;20292;-72
2022/05/08 11:18:07;;;;;;;5.40;2.40;;;37.40;19.20;;;;;;5073953;28;20202;-73
2022/05/08 11:20:37;;;;;;;3.40;1.90;;;37.70;19.00;;;;;;5073729;28;20186;-73
2022/05/08 11:23:05;;;;;;;3.33;1.90;;;37.80;17.90;;;;;;5074027;28;20197;-74
2022/05/08 11:25:34;;;;;;;4.00;1.87;;;37.90;17.30;;;;;;5074277;28;20289;-72
2022/05/08 11:28:01;;;;;;;4.05;2.13;;;38.10;17.50;;;;;;5081481;28;20198;-74
2022/05/08 11:30:32;;;;;;;5.18;2.20;;;38.30;17.50;;;;;;5079196;28;20241;-72
2022/05/08 11:36:06;;;;;;;2.85;1.42;;;38.70;16.80;;;;;;5073773;28;20180;-72
2022/05/08 11:38:44;;;;;;;6.93;1.77;;;38.90;17.00;;;;;;5073160;28;20660;-72
2022/05/08 11:41:13;;;;;;;3.40;1.73;;;39.00;16.40;;;;;;5073873;28;20312;-72
2022/05/08 11:43:41;;;;;;;4.90;1.88;;;39.20;16.80;;;;;;5073419;28;20206;-72
2022/05/08 11:46:09;;;;;;;4.57;2.33;;;39.40;17.10;;;;;;5073739;28;20201;-72
2022/05/08 11:48:41;;;;;;;4.63;2.03;;;39.60;17.10;;;;;;5073460;28;20206;-72
2022/05/08 11:51:10;;;;;;;5.65;2.05;;;39.70;16.80;;;;;;5073728;28;20228;-73
2022/05/08 11:53:46;;;;;;;4.90;1.80;;;39.90;16.90;;;;;;5073383;28;20594;-72
2022/05/08 11:56:25;;;;;;;6.25;3.03;;;40.10;16.60;;;;;;5073489;28;20208;-72
2022/05/08 11:58:52;;;;;;;6.05;4.60;;;40.30;16.30;;;;;;5073341;28;20204;-73
2022/05/08 12:01:30;;;;;;;6.45;3.50;;;40.50;16.60;;;;;;5073003;28;20716;-73
2022/05/08 12:04:26;;;;;;;5.13;2.50;;;40.60;16.30;;;;;;5073356;28;20178;-72
2022/05/08 12:07:05;;;;;;;3.80;2.10;;;40.70;15.90;;;;;;5073384;28;20228;-72
2022/05/08 12:09:33;;;;;;;5.43;2.50;;;40.70;16.00;;;;;;5073493;28;20559;-72
2022/05/08 12:12:25;;;;;;;5.38;2.63;;;40.90;16.10;;;;;;5073177;28;20275;-72
2022/05/08 12:14:53;;;;;;;4.50;1.77;;;41.10;15.60;;;;;;5073665;28;20688;-73
2022/05/08 12:17:20;;;;;;;3.05;1.52;;;41.30;15.40;;;;;;5074077;28;20197;-73
2022/05/08 12:19:52;;;;;;;6.85;2.17;;;41.60;15.50;;;;;;5073275;28;20197;-72
2022/05/08 12:22:20;;;;;;;5.22;3.42;;;41.70;15.30;;;;;;5077260;28;20295;-72
2022/05/08 12:24:47;;;;;;;3.53;2.17;;;41.90;15.00;;;;;;5077147;28;20194;-72
2022/05/08 12:27:14;;;;;;;4.90;1.75;;;42.00;15.00;;;;;;5077337;28;20259;-72
2022/05/08 12:29:43;;;;;;;2.90;1.70;;;42.30;15.20;;;;;;5077108;28;20205;-73
2022/05/08 12:32:10;;;;;;;4.38;1.88;;;42.50;15.20;;;;;;5077054;28;20282;-73
2022/05/08 12:34:37;;;;;;;3.58;1.80;;;42.70;14.60;;;;;;5076878;28;20224;-73
2022/05/08 12:37:04;;;;;;;3.85;1.80;;;42.90;14.70;;;;;;5076971;28;20228;-73
2022/05/08 12:39:31;;;;;;;2.83;1.67;;;43.20;14.10;;;;;;5076967;28;20201;-73
2022/05/08 12:41:58;;;;;;;4.05;1.88;;;43.40;13.90;;;;;;5076402;28;20221;-72
2022/05/08 12:44:25;;;;;;;4.05;1.83;;;43.60;14.20;;;;;;5076447;28;20590;-72
2022/05/08 12:46:53;;;;;;;3.80;2.53;;;43.70;14.00;;;;;;5076498;28;20206;-72
2022/05/08 12:49:20;;;;;;;5.82;3.03;;;43.90;13.70;;;;;;5076985;28;20206;-73
2022/05/08 12:51:47;;;;;;;4.95;2.83;;;44.00;13.80;;;;;;5076471;28;20232;-73
2022/05/08 12:54:14;;;;;;;4.93;2.00;;;44.20;13.60;;;;;;5076060;28;20596;-73
2022/05/08 12:56:41;;;;;;;4.82;1.98;;;44.30;14.00;;;;;;5076079;28;20573;-73
2022/05/08 13:01:54;;;;;;;3.80;1.77;;;44.60;13.60;;;;;;5076698;28;20229;-72
2022/05/08 13:04:21;;;;;;;4.28;2.08;;;44.80;13.30;;;;;;5076412;28;20194;-73
2022/05/08 13:06:48;;;;;;;5.05;2.28;;;45.10;13.30;;;;;;5076530;28;20240;-73
2022/05/08 13:09:15;;;;;;;5.15;2.08;;;45.20;13.20;;;;;;5076350;28;20248;-73
2022/05/08 13:11:41;;;;;;;5.07;2.03;;;45.30;12.70;;;;;;5082332;28;20645;-70